createdAt,value
2018-08-28T00:02:04.504Z,71.20
2018-08-28T00:04:33.751Z,70.70
2018-08-28T00:07:02.961Z,70.80
2018-08-28T00:09:32.209Z,71.10
2018-08-28T00:12:01.532Z,72.00
2018-08-28T00:14:30.900Z,71.50
2018-08-28T00:17:00.172Z,73.40
2018-08-28T00:19:29.369Z,73.00
2018-08-28T00:21:58.774Z,73.00
2018-08-28T00:24:27.981Z,72.90
2018-08-28T00:26:57.253Z,76.10
2018-08-28T00:29:26.569Z,73.40
2018-08-28T00:31:55.874Z,73.90
2018-08-28T00:34:25.212Z,74.00
2018-08-28T00:36:54.460Z,73.50
2018-08-28T00:39:23.838Z,74.20
2018-08-28T00:41:53.168Z,74.00
2018-08-28T00:44:22.571Z,74.30
2018-08-28T00:46:52.001Z,74.30
2018-08-28T00:49:21.393Z,75.00
2018-08-28T00:51:50.765Z,75.20
2018-08-28T00:54:20.040Z,74.40
2018-08-28T00:56:49.306Z,74.70
2018-08-28T00:59:18.506Z,74.00
2018-08-28T01:01:48.321Z,73.70
2018-08-28T01:04:17.441Z,75.10
2018-08-28T01:06:46.697Z,75.00
2018-08-28T01:09:15.947Z,74.90
2018-08-28T01:11:45.235Z,75.00
2018-08-28T01:14:14.498Z,74.20
2018-08-28T01:16:43.717Z,74.20
2018-08-28T01:19:13.930Z,74.30
2018-08-28T01:21:43.193Z,74.60
2018-08-28T01:24:12.497Z,74.40
2018-08-28T01:26:41.910Z,74.80
2018-08-28T01:29:11.114Z,74.60
2018-08-28T01:31:40.342Z,75.40
2018-08-28T01:34:09.702Z,76.00
2018-08-28T01:36:39.117Z,75.10
2018-08-28T01:39:08.722Z,75.50
2018-08-28T01:41:38.037Z,75.10
2018-08-28T01:44:07.406Z,75.20
2018-08-28T01:46:36.812Z,74.90
2018-08-28T01:49:06.266Z,75.00
2018-08-28T01:51:35.516Z,75.40
2018-08-28T01:54:04.777Z,74.30
2018-08-28T01:56:34.124Z,74.30
2018-08-28T01:59:03.494Z,74.20
2018-08-28T02:01:32.785Z,72.00
2018-08-28T02:04:02.098Z,72.40
2018-08-28T02:06:31.403Z,72.80
2018-08-28T02:09:00.846Z,71.00
2018-08-28T02:11:30.133Z,70.20
2018-08-28T02:13:59.349Z,69.60
2018-08-28T02:16:28.462Z,69.00
2018-08-28T02:18:57.797Z,68.40
2018-08-28T02:21:27.052Z,68.10
2018-08-28T02:23:56.411Z,67.80
2018-08-28T02:26:25.690Z,68.10
2018-08-28T02:28:54.863Z,67.70
2018-08-28T02:31:24.172Z,70.80
2018-08-28T02:33:53.492Z,69.20
2018-08-28T02:36:22.642Z,68.50
2018-08-28T02:38:51.813Z,67.90
2018-08-28T02:41:21.121Z,67.80
2018-08-28T02:43:50.290Z,68.30
2018-08-28T02:46:19.524Z,68.50
2018-08-28T02:48:48.797Z,68.30
2018-08-28T02:51:18.743Z,69.00
2018-08-28T02:53:48.045Z,68.10
2018-08-28T02:56:17.401Z,67.20
2018-08-28T02:58:46.724Z,66.90
2018-08-28T03:01:16.031Z,66.30
2018-08-28T03:03:45.330Z,66.20
2018-08-28T03:06:14.610Z,66.00
2018-08-28T03:08:43.954Z,66.40
2018-08-28T03:11:13.451Z,66.30
2018-08-28T03:13:42.749Z,65.80
2018-08-28T03:16:12.034Z,65.40
2018-08-28T03:18:41.336Z,65.20
2018-08-28T03:21:10.675Z,65.40
2018-08-28T03:23:40.368Z,66.00
2018-08-28T03:26:10.279Z,66.50
2018-08-28T03:28:39.640Z,66.50
2018-08-28T03:31:09.049Z,66.60
2018-08-28T03:33:38.331Z,65.50
2018-08-28T03:36:07.578Z,65.50
2018-08-28T03:38:36.894Z,67.60
2018-08-28T03:41:06.016Z,67.50
2018-08-28T03:43:35.447Z,67.00
2018-08-28T03:46:05.592Z,65.50
2018-08-28T03:48:34.874Z,65.20
2018-08-28T03:51:04.148Z,67.60
2018-08-28T03:53:33.491Z,68.60
2018-08-28T03:56:02.667Z,65.70
2018-08-28T03:58:31.844Z,67.40
2018-08-28T04:01:01.297Z,70.60
2018-08-28T04:03:31.291Z,71.00
2018-08-28T04:06:00.338Z,68.80
2018-08-28T04:08:29.624Z,70.90
2018-08-28T04:10:58.793Z,71.40
2018-08-28T04:13:28.056Z,70.60
2018-08-28T04:15:57.355Z,71.00
2018-08-28T04:18:26.477Z,74.00
2018-08-28T04:20:55.696Z,72.10
2018-08-28T04:23:24.976Z,72.20
2018-08-28T04:25:54.395Z,72.80
2018-08-28T04:28:23.683Z,72.50
2018-08-28T04:30:53.001Z,72.80
2018-08-28T04:33:22.303Z,73.20
2018-08-28T04:35:51.606Z,72.90
2018-08-28T04:38:20.937Z,73.30
2018-08-28T04:40:50.332Z,73.40
2018-08-28T04:43:19.550Z,73.00
2018-08-28T04:45:48.867Z,73.60
2018-08-28T04:48:18.234Z,73.50
2018-08-28T04:50:47.483Z,74.30
2018-08-28T04:53:16.927Z,73.70
2018-08-28T04:55:46.172Z,73.70
2018-08-28T04:58:16.022Z,73.30
2018-08-28T05:00:45.382Z,73.50
2018-08-28T05:03:14.733Z,73.30
2018-08-28T05:05:43.917Z,73.20
2018-08-28T05:08:13.095Z,73.00
2018-08-28T05:10:42.339Z,73.20
2018-08-28T05:13:11.488Z,74.80
2018-08-28T05:15:40.697Z,74.10
2018-08-28T05:18:09.827Z,72.70
2018-08-28T05:20:39.129Z,74.90
2018-08-28T05:23:08.392Z,74.90
2018-08-28T05:25:37.666Z,73.70
2018-08-28T05:28:06.959Z,72.80
2018-08-28T05:30:36.491Z,72.70
2018-08-28T05:33:05.769Z,72.20
2018-08-28T05:35:35.023Z,71.20
2018-08-28T05:38:04.374Z,71.50
2018-08-28T05:40:33.682Z,71.00
2018-08-28T05:43:03.001Z,70.60
2018-08-28T05:45:32.287Z,70.80
2018-08-28T05:48:01.601Z,71.10
2018-08-28T05:50:30.925Z,70.80
2018-08-28T05:53:00.155Z,71.60
2018-08-28T05:55:29.476Z,70.40
2018-08-28T05:57:58.764Z,71.00
2018-08-28T06:00:27.996Z,71.20
2018-08-28T06:02:57.295Z,68.90
2018-08-28T06:05:26.522Z,69.60
2018-08-28T06:07:55.870Z,71.30
2018-08-28T06:10:25.062Z,69.60
2018-08-28T06:12:54.260Z,67.20
2018-08-28T06:15:23.938Z,66.00
2018-08-28T06:17:53.190Z,62.80
2018-08-28T06:20:22.471Z,62.40
2018-08-28T06:22:51.871Z,64.30
2018-08-28T06:25:21.133Z,64.20
2018-08-28T06:27:50.614Z,65.60
2018-08-28T06:30:20.002Z,60.90
2018-08-28T06:32:49.378Z,61.00
2018-08-28T06:35:18.565Z,58.80
2018-08-28T06:37:47.767Z,59.00
2018-08-28T06:40:17.112Z,59.00
2018-08-28T06:42:46.480Z,58.40
2018-08-28T06:45:15.800Z,59.00
2018-08-28T06:47:45.110Z,58.90
2018-08-28T06:50:14.313Z,57.80
2018-08-28T06:52:43.610Z,60.30
2018-08-28T06:55:13.007Z,60.70
2018-08-28T06:57:42.350Z,61.80
2018-08-28T07:00:12.594Z,59.50
2018-08-28T07:02:42.028Z,61.20
2018-08-28T07:05:11.316Z,60.10
2018-08-28T07:07:40.593Z,61.60
2018-08-28T07:10:09.881Z,60.90
2018-08-28T07:12:39.141Z,63.30
2018-08-28T07:15:08.356Z,61.40
2018-08-28T07:17:37.632Z,58.10
2018-08-28T07:20:06.959Z,60.50
2018-08-28T07:22:36.180Z,59.90
2018-08-28T07:25:05.501Z,58.30
2018-08-28T07:27:34.877Z,58.80
2018-08-28T07:30:04.315Z,60.00
2018-08-28T07:32:34.539Z,59.90
2018-08-28T07:35:03.818Z,59.90
2018-08-28T07:37:33.175Z,57.80
2018-08-28T07:40:02.454Z,62.60
2018-08-28T07:42:31.566Z,58.00
2018-08-28T07:45:00.810Z,60.00
2018-08-28T07:47:29.996Z,59.20
2018-08-28T07:49:59.980Z,59.80
2018-08-28T07:52:29.314Z,59.10
2018-08-28T07:54:58.366Z,57.50
2018-08-28T07:57:27.478Z,60.50
2018-08-28T07:59:56.683Z,59.90
2018-08-28T08:02:26.119Z,58.30
2018-08-28T08:04:55.355Z,59.30
2018-08-28T08:07:26.168Z,56.60
2018-08-28T08:09:55.509Z,56.20
2018-08-28T08:12:24.760Z,58.70
2018-08-28T08:14:54.280Z,58.50
2018-08-28T08:17:23.622Z,57.70
2018-08-28T08:19:53.023Z,54.60
2018-08-28T08:22:22.258Z,54.40
2018-08-28T08:24:51.581Z,57.70
2018-08-28T08:27:20.923Z,52.50
2018-08-28T08:29:50.174Z,48.30
2018-08-28T08:32:19.408Z,50.00
2018-08-28T08:34:48.677Z,45.60
2018-08-28T08:37:17.925Z,42.80
2018-08-28T08:39:47.206Z,44.40
2018-08-28T08:42:16.377Z,40.60
2018-08-28T08:44:45.697Z,39.80
2018-08-28T08:47:14.993Z,38.20
2018-08-28T08:49:44.118Z,38.00
2018-08-28T08:52:13.384Z,41.10
2018-08-28T08:54:42.729Z,38.50
2018-08-28T08:57:12.019Z,38.30
2018-08-28T08:59:41.191Z,38.10
2018-08-28T09:02:10.503Z,39.40
2018-08-28T09:04:39.830Z,39.80
2018-08-28T09:07:09.043Z,37.70
2018-08-28T09:09:38.347Z,37.60
2018-08-28T09:12:07.596Z,36.30
2018-08-28T09:14:36.793Z,37.20
2018-08-28T09:17:06.136Z,38.50
2018-08-28T09:19:35.340Z,35.70
2018-08-28T09:22:04.481Z,34.00
2018-08-28T09:24:33.742Z,34.70
2018-08-28T09:27:03.043Z,34.80
2018-08-28T09:29:32.301Z,34.40
2018-08-28T09:32:01.571Z,34.30
2018-08-28T09:34:30.755Z,35.40
2018-08-28T09:37:00.052Z,33.90
2018-08-28T09:39:29.317Z,34.80
2018-08-28T09:41:58.496Z,32.90
2018-08-28T09:44:28.282Z,32.40
2018-08-28T09:46:57.688Z,30.80
2018-08-28T09:49:26.984Z,31.30
2018-08-28T09:51:56.256Z,31.40
2018-08-28T09:54:25.522Z,32.80
2018-08-28T09:56:54.778Z,34.00
2018-08-28T09:59:24.173Z,33.10
2018-08-28T10:01:53.347Z,32.70
2018-08-28T10:04:22.721Z,33.60
2018-08-28T10:06:52.045Z,33.80
2018-08-28T10:09:21.275Z,32.80
2018-08-28T10:11:50.559Z,33.10
2018-08-28T10:14:19.788Z,35.80
2018-08-28T10:16:48.958Z,34.50
2018-08-28T10:19:18.314Z,32.40
2018-08-28T10:21:47.595Z,32.80
2018-08-28T10:24:16.786Z,33.30
2018-08-28T10:26:45.986Z,32.60
2018-08-28T10:29:15.154Z,30.70
2018-08-28T10:31:44.428Z,31.90
2018-08-28T10:34:14.221Z,30.20
2018-08-28T10:36:43.387Z,31.20
2018-08-28T10:39:12.588Z,31.60
2018-08-28T10:41:41.827Z,31.60
2018-08-28T10:44:11.019Z,32.10
2018-08-28T10:46:40.406Z,32.70
2018-08-28T10:49:09.477Z,34.40
2018-08-28T10:51:38.690Z,35.10
2018-08-28T10:54:07.749Z,34.80
2018-08-28T10:56:36.993Z,34.60
2018-08-28T10:59:06.268Z,33.80
2018-08-28T11:01:35.397Z,36.20
2018-08-28T11:04:04.607Z,32.90
2018-08-28T11:06:33.769Z,31.90
2018-08-28T11:09:02.987Z,32.00
2018-08-28T11:11:32.077Z,31.70
2018-08-28T11:14:01.375Z,30.70
2018-08-28T11:16:30.637Z,31.40
2018-08-28T11:18:59.839Z,30.50
2018-08-28T11:21:29.049Z,30.20
2018-08-28T11:23:58.401Z,30.60
2018-08-28T11:26:27.586Z,31.50
2018-08-28T11:28:57.263Z,32.90
2018-08-28T11:31:26.536Z,33.60
2018-08-28T11:33:55.859Z,35.10
2018-08-28T11:36:25.106Z,34.50
2018-08-28T11:38:54.131Z,35.20
2018-08-28T11:41:23.354Z,33.40
2018-08-28T11:43:52.625Z,33.20
2018-08-28T11:46:21.984Z,34.00
2018-08-28T11:48:51.349Z,30.90
2018-08-28T11:51:20.633Z,30.30
2018-08-28T11:53:49.828Z,29.90
2018-08-28T11:56:19.029Z,29.30
2018-08-28T11:58:48.185Z,29.90
2018-08-28T12:01:17.450Z,29.30
2018-08-28T12:03:46.673Z,29.20
2018-08-28T12:06:15.886Z,28.80
2018-08-28T12:08:45.065Z,27.60
2018-08-28T12:11:14.238Z,28.30
2018-08-28T12:13:43.574Z,29.60
2018-08-28T12:16:12.830Z,29.40
2018-08-28T12:18:42.107Z,29.00
2018-08-28T12:21:11.554Z,29.00
2018-08-28T12:23:40.710Z,29.70
2018-08-28T12:26:09.908Z,29.30
2018-08-28T12:28:39.242Z,29.80
2018-08-28T12:31:08.365Z,31.10
2018-08-28T12:33:37.381Z,31.20
2018-08-28T12:36:06.847Z,31.30
2018-08-28T12:38:36.052Z,31.80
2018-08-28T12:41:05.259Z,30.40
2018-08-28T12:43:34.615Z,31.30
2018-08-28T12:46:03.874Z,29.80
2018-08-28T12:48:33.050Z,32.60
2018-08-28T12:51:02.255Z,31.60
2018-08-28T12:53:31.516Z,32.40
2018-08-28T12:56:00.766Z,31.80
2018-08-28T12:58:30.053Z,31.80
2018-08-28T13:00:59.808Z,33.60
2018-08-28T13:03:28.964Z,33.60
2018-08-28T13:05:58.161Z,32.00
2018-08-28T13:08:27.366Z,31.50
2018-08-28T13:10:56.793Z,32.40
2018-08-28T13:13:26.138Z,32.60
2018-08-28T13:15:55.402Z,33.30
2018-08-28T13:18:24.762Z,32.40
2018-08-28T13:20:58.022Z,33.60
2018-08-28T13:23:27.307Z,33.00
2018-08-28T13:25:56.602Z,33.40
2018-08-28T13:28:25.842Z,35.00
2018-08-28T13:30:55.462Z,32.20
2018-08-28T13:33:24.719Z,32.60
2018-08-28T13:35:53.994Z,33.40
2018-08-28T13:38:23.258Z,33.60
2018-08-28T13:40:52.631Z,34.30
2018-08-28T13:43:21.966Z,34.90
2018-08-28T13:45:51.159Z,36.40
2018-08-28T13:48:20.506Z,35.90
2018-08-28T13:50:49.799Z,35.90
2018-08-28T13:53:19.147Z,36.50
2018-08-28T13:55:48.452Z,35.20
2018-08-28T13:58:17.629Z,36.10
2018-08-28T14:00:46.816Z,36.40
2018-08-28T14:03:16.000Z,36.80
2018-08-28T14:05:45.210Z,37.00
2018-08-28T14:08:14.482Z,37.00
2018-08-28T14:10:43.786Z,35.30
2018-08-28T14:13:12.969Z,36.20
2018-08-28T14:15:42.221Z,35.80
2018-08-28T14:18:11.463Z,35.90
2018-08-28T14:20:40.810Z,35.70
2018-08-28T14:23:10.074Z,36.50
2018-08-28T14:25:39.434Z,35.20
2018-08-28T14:28:08.598Z,36.10
2018-08-28T14:30:37.794Z,35.00
2018-08-28T14:33:07.056Z,35.00
2018-08-28T14:35:36.493Z,36.00
2018-08-28T14:38:06.005Z,35.00
2018-08-28T14:40:35.278Z,36.10
2018-08-28T14:43:04.543Z,36.70
2018-08-28T14:45:33.926Z,35.60
2018-08-28T14:48:03.118Z,35.90
2018-08-28T14:50:32.589Z,36.00
2018-08-28T14:53:01.725Z,37.00
2018-08-28T14:55:31.005Z,36.80
2018-08-28T14:58:00.332Z,37.30
2018-08-28T15:00:29.715Z,36.20
2018-08-28T15:02:59.091Z,36.60
2018-08-28T15:05:28.379Z,36.10
2018-08-28T15:07:57.650Z,37.00
2018-08-28T15:10:26.961Z,37.00
2018-08-28T15:12:56.226Z,38.00
2018-08-28T15:15:25.453Z,37.20
2018-08-28T15:17:54.834Z,38.20
2018-08-28T15:20:24.063Z,38.10
2018-08-28T15:22:53.242Z,38.80
2018-08-28T15:25:22.557Z,38.00
2018-08-28T15:27:51.810Z,38.10
2018-08-28T15:30:21.115Z,38.00
2018-08-28T15:32:50.391Z,38.30
2018-08-28T15:35:19.636Z,38.10
2018-08-28T15:37:48.870Z,39.10
2018-08-28T15:40:18.233Z,39.30
2018-08-28T15:42:47.433Z,39.50
2018-08-28T15:45:16.487Z,39.10
2018-08-28T15:47:45.770Z,39.60
2018-08-28T15:50:14.959Z,39.80
2018-08-28T15:52:44.140Z,40.30
2018-08-28T15:55:13.518Z,41.00
2018-08-28T15:57:42.837Z,40.80
2018-08-28T16:00:12.070Z,40.30
2018-08-28T16:02:41.465Z,40.20
2018-08-28T16:05:10.698Z,41.00
2018-08-28T16:07:40.042Z,42.50
2018-08-28T16:10:09.379Z,42.40
2018-08-28T16:12:38.574Z,41.70
2018-08-28T16:15:07.875Z,42.50
2018-08-28T16:17:37.143Z,43.90
2018-08-28T16:20:06.607Z,44.30
2018-08-28T16:22:39.309Z,43.60
2018-08-28T16:25:08.550Z,43.70
2018-08-28T16:27:37.787Z,43.70
2018-08-28T16:30:06.935Z,43.80
2018-08-28T16:32:36.118Z,43.10
2018-08-28T16:35:05.421Z,44.00
2018-08-28T16:37:34.570Z,44.50
2018-08-28T16:40:03.970Z,44.90
2018-08-28T16:42:33.353Z,45.60
2018-08-28T16:45:02.908Z,46.40
2018-08-28T16:47:32.307Z,46.30
2018-08-28T16:50:01.643Z,46.20
2018-08-28T16:52:31.291Z,46.20
2018-08-28T16:55:01.631Z,45.90
2018-08-28T16:57:31.847Z,45.40
2018-08-28T17:00:01.771Z,45.50
2018-08-28T17:02:31.064Z,44.40
2018-08-28T17:05:00.371Z,44.50
2018-08-28T17:07:29.818Z,44.50
2018-08-28T17:09:59.082Z,46.50
2018-08-28T17:12:28.725Z,45.20
2018-08-28T17:14:58.506Z,44.60
2018-08-28T17:17:27.792Z,44.90
2018-08-28T17:19:57.011Z,46.40
2018-08-28T17:22:26.383Z,46.50
2018-08-28T17:24:55.618Z,45.60
2018-08-28T17:27:24.892Z,45.90
2018-08-28T17:29:54.111Z,45.90
2018-08-28T17:32:23.483Z,48.00
2018-08-28T17:34:52.901Z,46.70
2018-08-28T17:37:22.284Z,46.80
2018-08-28T17:39:51.449Z,48.70
2018-08-28T17:42:20.675Z,49.10
2018-08-28T17:44:49.900Z,48.10
2018-08-28T17:47:19.116Z,47.10
2018-08-28T17:49:48.301Z,47.60
2018-08-28T17:52:17.547Z,47.40
2018-08-28T17:54:46.827Z,47.80
2018-08-28T17:57:16.066Z,48.30
2018-08-28T17:59:45.287Z,48.40
2018-08-28T18:02:14.549Z,48.50
2018-08-28T18:04:43.790Z,49.10
2018-08-28T18:07:13.441Z,48.90
2018-08-28T18:09:42.618Z,49.50
2018-08-28T18:12:11.773Z,50.00
2018-08-28T18:14:40.927Z,51.00
2018-08-28T18:17:10.039Z,51.00
2018-08-28T18:19:39.289Z,51.60
2018-08-28T18:22:08.442Z,52.30
2018-08-28T18:24:37.694Z,52.00
2018-08-28T18:27:07.077Z,53.50
2018-08-28T18:29:36.271Z,52.90
2018-08-28T18:32:05.609Z,53.90
2018-08-28T18:34:34.956Z,53.90
2018-08-28T18:37:04.168Z,54.10
2018-08-28T18:39:33.461Z,54.40
2018-08-28T18:42:02.899Z,54.60
2018-08-28T18:44:32.118Z,55.00
2018-08-28T18:47:01.535Z,56.00
2018-08-28T18:49:30.672Z,58.30
2018-08-28T18:52:00.094Z,59.10
2018-08-28T18:54:29.302Z,59.50
2018-08-28T18:56:58.339Z,60.20
2018-08-28T18:59:27.642Z,61.10
2018-08-28T19:01:56.909Z,61.90
2018-08-28T19:04:27.106Z,63.70
2018-08-28T19:06:56.453Z,64.80
2018-08-28T19:09:25.697Z,64.60
2018-08-28T19:11:54.994Z,64.70
2018-08-28T19:14:24.165Z,64.80
2018-08-28T19:16:53.782Z,65.80
2018-08-28T19:19:23.003Z,67.00
2018-08-28T19:21:52.259Z,67.30
2018-08-28T19:24:21.517Z,68.80
2018-08-28T19:26:50.737Z,68.30
2018-08-28T19:29:19.861Z,68.80
2018-08-28T19:31:49.120Z,68.50
2018-08-28T19:34:18.469Z,69.20
2018-08-28T19:36:47.521Z,69.60
2018-08-28T19:39:17.633Z,70.70
2018-08-28T19:41:46.821Z,71.70
2018-08-28T19:44:16.105Z,70.70
2018-08-28T19:46:45.098Z,70.00
2018-08-28T19:49:14.269Z,69.70
2018-08-28T19:51:43.362Z,69.80
2018-08-28T19:54:12.442Z,69.80
2018-08-28T19:56:41.702Z,69.30
2018-08-28T19:59:10.976Z,69.60
2018-08-28T20:01:40.043Z,70.50
2018-08-28T20:04:09.392Z,70.50
2018-08-28T20:06:38.601Z,70.50
2018-08-28T20:09:07.869Z,69.80
2018-08-28T20:11:37.613Z,68.40
2018-08-28T20:14:06.986Z,68.10
2018-08-28T20:16:36.240Z,68.10
2018-08-28T20:19:05.777Z,68.20
2018-08-28T20:21:35.086Z,70.80
2018-08-28T20:24:04.316Z,72.10
2018-08-28T20:26:33.539Z,70.30
2018-08-28T20:29:02.759Z,69.60
2018-08-28T20:31:31.918Z,70.20
2018-08-28T20:34:01.094Z,70.70
2018-08-28T20:36:30.279Z,70.60
2018-08-28T20:38:59.458Z,70.80
2018-08-28T20:41:28.534Z,70.70
2018-08-28T20:43:57.574Z,71.20
2018-08-28T20:46:26.831Z,71.90
2018-08-28T20:48:56.046Z,72.30
2018-08-28T20:51:25.193Z,72.40
2018-08-28T20:53:54.390Z,72.80
2018-08-28T20:56:23.511Z,74.00
2018-08-28T20:58:52.654Z,75.60
2018-08-28T21:01:21.922Z,76.40
2018-08-28T21:03:51.182Z,77.00
2018-08-28T21:06:20.475Z,77.10
2018-08-28T21:08:49.782Z,77.80
2018-08-28T21:11:19.082Z,78.50
2018-08-28T21:13:48.365Z,78.30
2018-08-28T21:16:17.543Z,78.50
2018-08-28T21:18:46.686Z,79.20
2018-08-28T21:21:16.179Z,79.50
2018-08-28T21:23:45.950Z,80.20
2018-08-28T21:26:15.157Z,81.00
2018-08-28T21:28:44.386Z,81.00
2018-08-28T21:31:13.736Z,81.70
2018-08-28T21:33:42.890Z,82.00
2018-08-28T21:36:12.149Z,82.50
2018-08-28T21:38:41.350Z,82.90
2018-08-28T21:41:10.739Z,81.90
2018-08-28T21:43:39.985Z,80.30
2018-08-28T21:46:09.160Z,81.60
2018-08-28T21:48:38.418Z,81.30
2018-08-28T21:51:07.654Z,82.50
2018-08-28T21:53:37.347Z,81.80
2018-08-28T21:56:06.598Z,82.00
2018-08-28T21:58:35.849Z,84.70
2018-08-28T22:01:12.041Z,83.70
2018-08-28T22:03:42.326Z,83.50
2018-08-28T22:06:16.568Z,83.30
2018-08-28T22:08:45.895Z,82.90
2018-08-28T22:11:15.054Z,82.50
2018-08-28T22:13:44.320Z,83.40
2018-08-28T22:16:13.469Z,82.70
2018-08-28T22:18:42.643Z,82.90
2018-08-28T22:21:12.057Z,82.90
2018-08-28T22:23:41.362Z,82.20
2018-08-28T22:26:10.484Z,82.60
2018-08-28T22:28:39.751Z,82.70
2018-08-28T22:31:08.961Z,83.10
2018-08-28T22:33:38.146Z,82.70
2018-08-28T22:36:07.460Z,82.60
2018-08-28T22:38:36.725Z,82.10
2018-08-28T22:41:06.038Z,82.30
2018-08-28T22:43:35.248Z,82.10
2018-08-28T22:46:04.471Z,82.20
2018-08-28T22:48:34.013Z,82.90
2018-08-28T22:51:03.225Z,82.50
2018-08-28T22:53:32.625Z,82.50
2018-08-28T22:56:01.879Z,82.60
2018-08-28T22:58:30.949Z,83.70
2018-08-28T23:01:00.260Z,83.50
2018-08-28T23:03:29.454Z,83.00
2018-08-28T23:05:58.449Z,84.70
2018-08-28T23:08:27.729Z,84.10
2018-08-28T23:10:56.935Z,84.70
2018-08-28T23:13:25.963Z,85.20
2018-08-28T23:15:55.228Z,84.40
2018-08-28T23:18:24.441Z,85.50
2018-08-28T23:20:53.653Z,84.10
2018-08-28T23:23:22.770Z,84.50
2018-08-28T23:25:51.887Z,82.60
2018-08-28T23:28:21.107Z,81.80
2018-08-28T23:30:50.424Z,82.50
2018-08-28T23:33:19.849Z,81.90
2018-08-28T23:35:49.090Z,82.60
2018-08-28T23:38:18.413Z,83.20
2018-08-28T23:40:47.677Z,83.40
2018-08-28T23:43:16.928Z,82.60
2018-08-28T23:45:46.065Z,83.70
2018-08-28T23:48:15.137Z,82.00
2018-08-28T23:50:44.333Z,83.60
2018-08-28T23:53:13.692Z,83.40
2018-08-28T23:55:42.798Z,82.80
2018-08-28T23:58:11.970Z,82.40
